createdAt,value
2022-08-07T00:00:44.659Z,90.62
2022-08-07T00:02:40.704Z,90.62
2022-08-07T00:02:44.884Z,91.13
2022-08-07T00:03:47.276Z,91.53
2022-08-07T00:04:43.822Z,91.13
2022-08-07T00:05:43.781Z,91.02
2022-08-07T00:06:51.362Z,90.62
2022-08-07T00:07:44.760Z,91.42
2022-08-07T00:08:44.321Z,91.13
2022-08-07T00:09:50.169Z,90.92
2022-08-07T00:10:48.377Z,91.22
2022-08-07T00:11:53.882Z,91.13
2022-08-07T00:12:59.685Z,91.53
2022-08-07T00:13:45.032Z,91.22
2022-08-07T00:14:44.193Z,91.63
2022-08-07T00:15:46.889Z,91.63
2022-08-07T00:16:44.656Z,92.43
2022-08-07T00:17:43.654Z,91.73
2022-08-07T00:18:43.643Z,91.17
2022-08-07T00:20:02.468Z,91.47
2022-08-07T00:20:44.617Z,91.67
2022-08-07T00:21:56.009Z,91.77
2022-08-07T00:22:51.582Z,91.47
2022-08-07T00:23:44.589Z,91.67
2022-08-07T00:24:43.568Z,91.57
2022-08-07T00:25:43.578Z,91.37
2022-08-07T00:26:58.909Z,91.67
2022-08-07T00:27:52.395Z,92.07
2022-08-07T00:28:46.123Z,92.27
2022-08-07T00:29:44.529Z,92.47
2022-08-07T00:30:43.527Z,92.18
2022-08-07T00:31:43.500Z,92.27
2022-08-07T00:32:44.491Z,92.68
2022-08-07T00:33:43.490Z,91.77
2022-08-07T00:34:43.832Z,92.38
2022-08-07T00:35:47.729Z,92.18
2022-08-07T00:36:44.442Z,92.78
2022-08-07T00:37:47.899Z,92.07
2022-08-07T00:38:44.434Z,92.07
2022-08-07T00:39:45.157Z,92.18
2022-08-07T00:40:44.412Z,91.97
2022-08-07T00:41:53.231Z,91.97
2022-08-07T00:42:44.385Z,91.97
2022-08-07T00:44:00.471Z,91.97
2022-08-07T00:44:44.376Z,91.67
2022-08-07T00:45:46.443Z,91.87
2022-08-07T00:46:43.714Z,92.07
2022-08-07T00:48:10.416Z,92.18
2022-08-07T00:48:44.316Z,91.87
2022-08-07T00:50:20.738Z,92.18
2022-08-07T00:50:51.203Z,92.18
2022-08-07T00:51:58.221Z,92.18
2022-08-07T00:52:47.283Z,92.07
2022-08-07T00:53:50.487Z,91.97
2022-08-07T00:54:44.281Z,91.87
2022-08-07T00:56:02.425Z,91.97
2022-08-07T00:56:44.233Z,92.07
2022-08-07T00:57:55.231Z,92.18
2022-08-07T00:58:46.818Z,91.97
2022-08-07T00:59:44.220Z,92.18
2022-08-07T01:00:53.365Z,92.18
2022-08-07T01:01:44.915Z,92.32
2022-08-07T01:02:43.171Z,92.27
2022-08-07T01:03:55.955Z,92.62
2022-08-07T01:04:44.152Z,92.32
2022-08-07T01:05:43.153Z,92.32
2022-08-07T01:06:44.144Z,92.72
2022-08-07T01:07:43.124Z,92.32
2022-08-07T01:08:53.507Z,92.42
2022-08-07T01:10:06.619Z,92.52
2022-08-07T01:10:54.225Z,92.62
2022-08-07T01:12:27.909Z,92.72
2022-08-07T01:12:53.495Z,93.02
2022-08-07T01:13:55.532Z,93.33
2022-08-07T01:14:45.018Z,93.33
2022-08-07T01:16:05.162Z,93.13
2022-08-07T01:16:47.138Z,93.23
2022-08-07T01:17:43.031Z,93.63
2022-08-07T01:18:43.007Z,93.13
2022-08-07T01:19:52.403Z,93.33
2022-08-07T01:20:43.988Z,93.33
2022-08-07T01:21:43.978Z,93.23
2022-08-07T01:22:57.811Z,93.63
2022-08-07T01:23:46.695Z,93.43
2022-08-07T01:24:42.939Z,93.02
2022-08-07T01:25:55.615Z,93.43
2022-08-07T01:26:43.920Z,93.43
2022-08-07T01:27:51.215Z,93.33
2022-08-07T01:28:46.334Z,93.53
2022-08-07T01:29:42.891Z,93.84
2022-08-07T01:30:42.882Z,93.53
2022-08-07T01:31:46.179Z,93.63
2022-08-07T01:32:43.859Z,93.73
2022-08-07T01:33:55.605Z,93.53
2022-08-07T01:34:43.839Z,94.04
2022-08-07T01:35:53.613Z,93.68
2022-08-07T01:36:44.015Z,93.68
2022-08-07T01:37:42.824Z,93.88
2022-08-07T01:38:42.804Z,93.57
2022-08-07T01:39:46.448Z,93.57
2022-08-07T01:40:42.774Z,93.57
2022-08-07T01:41:55.260Z,93.88
2022-08-07T01:42:58.975Z,93.77
2022-08-07T01:43:43.759Z,93.77
2022-08-07T01:44:42.738Z,93.88
2022-08-07T01:45:43.741Z,93.77
2022-08-07T01:46:42.715Z,94.18
2022-08-07T01:48:20.602Z,94.28
2022-08-07T01:48:46.804Z,94.08
2022-08-07T01:49:42.697Z,93.88
2022-08-07T01:50:43.285Z,93.88
2022-08-07T01:52:01.635Z,93.88
2022-08-07T01:52:49.450Z,93.88
2022-08-07T01:54:12.160Z,93.68
2022-08-07T01:54:43.651Z,93.77
2022-08-07T01:55:42.619Z,93.77
2022-08-07T01:56:42.601Z,93.77
2022-08-07T01:58:06.318Z,93.88
2022-08-07T01:58:45.194Z,93.98
2022-08-07T01:59:43.824Z,93.98
2022-08-07T02:00:49.031Z,94.18
2022-08-07T02:02:00.182Z,93.77
2022-08-07T02:03:18.961Z,93.98
2022-08-07T02:03:50.410Z,94.08
2022-08-07T02:04:55.705Z,93.88
2022-08-07T02:05:58.571Z,94.08
2022-08-07T02:06:43.501Z,93.88
2022-08-07T02:07:50.208Z,93.98
2022-08-07T02:08:43.475Z,93.77
2022-08-07T02:09:53.017Z,93.98
2022-08-07T02:10:43.464Z,93.88
2022-08-07T02:12:03.015Z,94.28
2022-08-07T02:12:43.437Z,94.18
2022-08-07T02:13:56.512Z,93.98
2022-08-07T02:14:43.418Z,93.98
2022-08-07T02:15:42.420Z,93.92
2022-08-07T02:16:42.409Z,94.02
2022-08-07T02:17:42.397Z,94.02
2022-08-07T02:18:47.084Z,94.02
2022-08-07T02:20:05.372Z,94.02
2022-08-07T02:20:43.364Z,93.82
2022-08-07T02:21:56.604Z,93.92
2022-08-07T02:22:43.609Z,93.82
2022-08-07T02:23:42.344Z,93.82
2022-08-07T02:24:44.551Z,94.12
2022-08-07T02:26:31.176Z,93.82
2022-08-07T02:26:43.297Z,93.92
2022-08-07T02:27:42.295Z,94.53
2022-08-07T02:28:42.281Z,93.88
2022-08-07T02:29:48.752Z,93.72
2022-08-07T02:30:43.261Z,93.98
2022-08-07T02:31:42.251Z,93.68
2022-08-07T02:33:00.137Z,93.68
2022-08-07T02:34:03.092Z,93.68
2022-08-07T02:34:51.072Z,93.98
2022-08-07T02:36:28.378Z,93.92
2022-08-07T02:36:43.192Z,93.88
2022-08-07T02:37:44.175Z,94.08
2022-08-07T02:38:51.032Z,93.98
2022-08-07T02:40:11.732Z,93.82
2022-08-07T02:40:43.202Z,93.88
2022-08-07T02:41:50.808Z,94.38
2022-08-07T02:42:43.124Z,93.98
2022-08-07T02:43:42.126Z,93.68
2022-08-07T02:44:47.783Z,93.62
2022-08-07T02:45:59.325Z,93.68
2022-08-07T02:46:46.856Z,93.88
2022-08-07T02:47:45.422Z,94.08
2022-08-07T02:48:47.216Z,93.98
2022-08-07T02:49:56.183Z,93.57
2022-08-07T02:50:43.041Z,93.57
2022-08-07T02:51:52.069Z,93.57
2022-08-07T02:52:44.135Z,93.98
2022-08-07T02:53:42.020Z,93.77
2022-08-07T02:54:42.013Z,93.88
2022-08-07T02:56:04.105Z,93.68
2022-08-07T02:56:42.972Z,93.88
2022-08-07T02:57:41.974Z,93.48
2022-08-07T02:58:46.963Z,93.48
2022-08-07T02:59:43.036Z,93.57
2022-08-07T03:00:42.995Z,93.77
2022-08-07T03:01:42.001Z,93.68
2022-08-07T03:02:54.919Z,93.77
2022-08-07T03:03:49.715Z,93.37
2022-08-07T03:04:42.892Z,93.17
2022-08-07T03:05:41.893Z,93.48
2022-08-07T03:06:42.106Z,93.48
2022-08-07T03:07:43.171Z,93.27
2022-08-07T03:08:42.856Z,93.27
2022-08-07T03:09:45.447Z,93.57
2022-08-07T03:10:46.466Z,93.88
2022-08-07T03:11:52.351Z,94.08
2022-08-07T03:12:42.824Z,93.77
2022-08-07T03:13:49.766Z,93.48
2022-08-07T03:14:42.797Z,93.48
2022-08-07T03:15:55.855Z,94.02
2022-08-07T03:16:42.788Z,93.41
2022-08-07T03:17:53.479Z,93.92
2022-08-07T03:18:44.106Z,93.88
2022-08-07T03:19:41.733Z,93.62
2022-08-07T03:20:41.743Z,93.37
2022-08-07T03:21:41.711Z,93.17
2022-08-07T03:22:42.723Z,93.41
2022-08-07T03:24:18.984Z,93.52
2022-08-07T03:24:42.690Z,93.57
2022-08-07T03:25:41.838Z,93.88
2022-08-07T03:26:42.852Z,94.18
2022-08-07T03:27:59.167Z,93.77
2022-08-07T03:28:43.026Z,93.88
2022-08-07T03:29:46.106Z,93.77
2022-08-07T03:30:42.623Z,93.98
2022-08-07T03:31:43.451Z,93.52
2022-08-07T03:32:48.949Z,93.41
2022-08-07T03:33:42.592Z,93.52
2022-08-07T03:34:47.426Z,93.68
2022-08-07T03:35:49.947Z,93.72
2022-08-07T03:36:42.565Z,93.52
2022-08-07T03:37:45.857Z,94.02
2022-08-07T03:38:42.547Z,93.52
2022-08-07T03:39:59.193Z,93.82
2022-08-07T03:40:44.214Z,93.72
2022-08-07T03:41:42.006Z,93.62
2022-08-07T03:42:42.512Z,93.92
2022-08-07T03:43:56.733Z,93.72
2022-08-07T03:44:42.478Z,93.92
2022-08-07T03:45:43.626Z,93.92
2022-08-07T03:47:11.057Z,93.72
2022-08-07T03:47:48.257Z,93.72
2022-08-07T03:48:45.358Z,93.82
2022-08-07T03:49:42.427Z,94.02
2022-08-07T03:50:43.245Z,93.62
2022-08-07T03:51:47.244Z,93.62
2022-08-07T03:52:42.390Z,93.72
2022-08-07T03:54:05.587Z,94.12
2022-08-07T03:54:54.476Z,93.72
2022-08-07T03:55:57.378Z,93.82
2022-08-07T03:56:42.349Z,94.02
2022-08-07T03:59:05.666Z,93.92
2022-08-07T03:59:13.084Z,94.12
2022-08-07T03:59:46.644Z,94.12
2022-08-07T04:00:46.641Z,93.92
2022-08-07T04:01:43.315Z,94.32
2022-08-07T04:02:41.494Z,93.52
2022-08-07T04:03:53.313Z,93.62
2022-08-07T04:04:42.284Z,93.52
2022-08-07T04:05:42.349Z,93.82
2022-08-07T04:06:41.244Z,93.52
2022-08-07T04:07:42.555Z,94.02
2022-08-07T04:08:41.226Z,93.62
2022-08-07T04:09:45.531Z,93.92
2022-08-07T04:10:42.593Z,93.72
2022-08-07T04:12:20.690Z,93.72
2022-08-07T04:12:42.187Z,93.52
2022-08-07T04:14:32.948Z,93.62
2022-08-07T04:14:43.867Z,93.92
2022-08-07T04:15:41.149Z,93.72
2022-08-07T04:16:43.010Z,93.92
2022-08-07T04:18:57.024Z,93.62
2022-08-07T04:18:59.643Z,93.62
2022-08-07T04:19:52.652Z,93.82
2022-08-07T04:20:54.344Z,93.41
2022-08-07T04:21:47.923Z,93.41
2022-08-07T04:22:53.794Z,93.41
2022-08-07T04:23:43.432Z,93.52
2022-08-07T04:24:42.073Z,93.21
2022-08-07T04:25:41.137Z,93.32
2022-08-07T04:26:41.042Z,93.41
2022-08-07T04:27:44.407Z,93.41
2022-08-07T04:28:42.016Z,93.32
2022-08-07T04:29:58.568Z,94.23
2022-08-07T04:30:55.447Z,93.52
2022-08-07T04:32:03.037Z,93.52
2022-08-07T04:32:44.848Z,93.32
2022-08-07T04:33:41.955Z,93.62
2022-08-07T04:34:40.955Z,93.32
2022-08-07T04:35:40.940Z,93.12
2022-08-07T04:36:40.934Z,93.32
2022-08-07T04:38:03.980Z,93.21
2022-08-07T04:38:41.916Z,93.21
2022-08-07T04:39:41.046Z,93.12
2022-08-07T04:40:51.493Z,93.12
2022-08-07T04:41:42.112Z,92.91
2022-08-07T04:42:41.865Z,93.17
2022-08-07T04:44:11.742Z,93.37
2022-08-07T04:44:41.856Z,92.66
2022-08-07T04:45:57.257Z,93.37
2022-08-07T04:46:59.498Z,92.77
2022-08-07T04:47:57.258Z,92.57
2022-08-07T04:48:44.748Z,92.46
2022-08-07T04:49:40.795Z,92.57
2022-08-07T04:50:40.792Z,92.66
2022-08-07T04:51:40.820Z,92.36
2022-08-07T04:52:50.929Z,92.26
2022-08-07T04:54:05.775Z,92.36
2022-08-07T04:54:41.750Z,92.26
2022-08-07T04:58:10.821Z,92.36
2022-08-07T04:58:12.004Z,92.16
2022-08-07T04:58:24.504Z,92.06
2022-08-07T04:59:17.793Z,92.16
2022-08-07T05:00:12.344Z,92.36
2022-08-07T05:00:41.747Z,92.26
2022-08-07T05:01:40.894Z,92.16
2022-08-07T05:02:42.793Z,92.06
2022-08-07T05:04:06.517Z,92.06
2022-08-07T05:04:47.216Z,92.16
2022-08-07T05:05:53.130Z,92.66
2022-08-07T05:06:43.338Z,92.26
2022-08-07T05:07:48.498Z,92.66
2022-08-07T05:08:59.987Z,93.02
2022-08-07T05:09:45.745Z,92.26
2022-08-07T05:10:41.657Z,92.02
2022-08-07T05:11:57.465Z,92.32
2022-08-07T05:12:46.425Z,92.42
2022-08-07T05:14:52.971Z,92.02
2022-08-07T05:14:56.530Z,92.22
2022-08-07T05:15:41.521Z,92.12
2022-08-07T05:16:43.975Z,91.61
2022-08-07T05:17:50.794Z,92.02
2022-08-07T05:18:41.492Z,91.71
2022-08-07T05:19:44.855Z,91.91
2022-08-07T05:20:40.469Z,92.82
2022-08-07T05:21:59.899Z,92.02
2022-08-07T05:22:41.456Z,91.71
2022-08-07T05:23:40.432Z,91.61
2022-08-07T05:24:40.850Z,91.71
2022-08-07T05:26:11.773Z,91.91
2022-08-07T05:26:41.414Z,92.02
2022-08-07T05:28:02.974Z,91.71
2022-08-07T05:28:41.415Z,91.61
2022-08-07T05:29:51.247Z,91.41
2022-08-07T05:30:41.385Z,91.41
2022-08-07T05:31:40.446Z,91.31
2022-08-07T05:32:41.357Z,91.21
2022-08-07T05:33:40.326Z,91.51
2022-08-07T05:34:41.327Z,91.82
2022-08-07T05:35:41.754Z,91.67
2022-08-07T05:36:40.314Z,90.91
2022-08-07T05:37:42.306Z,90.86
2022-08-07T05:39:00.704Z,90.97
2022-08-07T05:40:13.485Z,91.17
2022-08-07T05:40:50.546Z,90.86
2022-08-07T05:42:01.062Z,90.66
2022-08-07T05:42:41.247Z,91.37
2022-08-07T05:44:01.149Z,90.97
2022-08-07T05:44:41.642Z,90.77
2022-08-07T05:45:46.525Z,90.56
2022-08-07T05:46:41.200Z,91.06
2022-08-07T05:48:02.661Z,90.66
2022-08-07T05:48:58.229Z,90.26
2022-08-07T05:49:41.285Z,90.06
2022-08-07T05:50:42.849Z,90.11
2022-08-07T05:51:40.763Z,90.11
2022-08-07T05:52:40.143Z,90.11
2022-08-07T05:54:09.343Z,90.11
2022-08-07T05:54:53.157Z,90.42
2022-08-07T05:56:01.962Z,89.61
2022-08-07T05:56:41.095Z,89.61
2022-08-07T05:57:41.931Z,90.32
2022-08-07T05:58:40.084Z,90.01
2022-08-07T05:59:56.112Z,89.81
2022-08-07T06:00:41.066Z,88.81
2022-08-07T06:01:41.076Z,89.61
2022-08-07T06:02:40.036Z,89.61
2022-08-07T06:03:57.283Z,89.11
2022-08-07T06:04:41.019Z,88.81
2022-08-07T06:05:40.548Z,88.70
2022-08-07T06:06:46.410Z,89.01
2022-08-07T06:08:14.884Z,88.90
2022-08-07T06:08:44.254Z,89.21
2022-08-07T06:10:04.421Z,89.01
2022-08-07T06:10:40.951Z,90.22
2022-08-07T06:11:39.934Z,89.91
2022-08-07T06:12:39.929Z,89.01
2022-08-07T06:14:12.653Z,89.11
2022-08-07T06:14:40.902Z,89.81
2022-08-07T06:15:42.769Z,88.96
2022-08-07T06:16:39.890Z,88.86
2022-08-07T06:17:39.993Z,88.76
2022-08-07T06:18:39.864Z,88.56
2022-08-07T06:19:52.193Z,88.96
2022-08-07T06:20:50.291Z,89.47
2022-08-07T06:22:15.936Z,89.06
2022-08-07T06:22:40.813Z,88.86
2022-08-07T06:24:38.657Z,88.66
2022-08-07T06:24:56.909Z,88.86
2022-08-07T06:25:40.785Z,88.56
2022-08-07T06:26:40.774Z,88.86
2022-08-07T06:28:00.750Z,89.12
2022-08-07T06:28:40.755Z,89.43
2022-08-07T06:29:39.748Z,89.12
2022-08-07T06:30:45.403Z,88.72
2022-08-07T06:31:49.633Z,88.02
2022-08-07T06:32:40.847Z,88.22
2022-08-07T06:33:39.698Z,87.41
2022-08-07T06:34:40.706Z,88.62
2022-08-07T06:35:48.048Z,87.82
2022-08-07T06:36:40.667Z,88.52
2022-08-07T06:37:43.823Z,88.42
2022-08-07T06:38:39.649Z,87.41
2022-08-07T06:40:16.632Z,87.62
2022-08-07T06:40:45.781Z,87.62
2022-08-07T06:42:01.971Z,87.71
2022-08-07T06:42:40.620Z,88.12
2022-08-07T06:43:40.111Z,87.92
2022-08-07T06:44:40.691Z,87.82
2022-08-07T06:45:39.590Z,87.71
2022-08-07T06:46:39.899Z,88.02
2022-08-07T06:47:56.994Z,87.82
2022-08-07T06:48:42.005Z,88.72
2022-08-07T06:49:51.793Z,88.22
2022-08-07T06:50:43.399Z,88.02
2022-08-07T06:51:49.546Z,88.12
2022-08-07T06:52:40.501Z,88.82
2022-08-07T06:55:29.694Z,88.32
2022-08-07T06:55:33.521Z,88.82
2022-08-07T06:55:54.039Z,89.03
2022-08-07T06:56:49.760Z,88.92
2022-08-07T06:57:48.454Z,89.83
2022-08-07T06:58:40.445Z,88.92
2022-08-07T07:00:13.122Z,89.53
2022-08-07T07:00:42.208Z,89.43
2022-08-07T07:01:43.988Z,90.03
2022-08-07T07:02:53.304Z,90.09
2022-08-07T07:03:50.221Z,88.98
2022-08-07T07:04:43.501Z,87.98
2022-08-07T07:06:02.385Z,88.78
2022-08-07T07:07:00.733Z,89.28
2022-08-07T07:07:58.561Z,87.98
2022-08-07T07:08:46.412Z,87.87
2022-08-07T07:09:40.317Z,88.48
2022-08-07T07:10:39.323Z,89.39
2022-08-07T07:12:07.575Z,88.68
2022-08-07T07:12:41.864Z,87.98
2022-08-07T07:13:56.185Z,88.48
2022-08-07T07:14:40.271Z,88.18
2022-08-07T07:15:39.259Z,88.68
2022-08-07T07:16:49.947Z,87.47
2022-08-07T07:17:45.212Z,87.77
2022-08-07T07:18:47.828Z,88.64
2022-08-07T07:19:57.688Z,88.23
2022-08-07T07:20:40.201Z,88.64
2022-08-07T07:22:05.241Z,88.64
2022-08-07T07:24:08.527Z,87.43
2022-08-07T07:24:08.821Z,88.03
2022-08-07T07:24:40.162Z,87.43
2022-08-07T07:26:32.361Z,86.93
2022-08-07T07:26:40.957Z,87.13
2022-08-07T07:27:56.054Z,88.03
2022-08-07T07:28:48.365Z,88.34
2022-08-07T07:30:07.662Z,87.89
2022-08-07T07:30:40.429Z,86.99
2022-08-07T07:31:44.152Z,87.69
2022-08-07T07:32:40.072Z,87.79
2022-08-07T07:33:39.068Z,88.09
2022-08-07T07:34:39.588Z,86.99
2022-08-07T07:35:44.036Z,87.08
2022-08-07T07:36:40.474Z,87.29
2022-08-07T07:37:52.640Z,86.79
2022-08-07T07:38:40.009Z,86.88
2022-08-07T07:39:52.321Z,87.24
2022-08-07T07:40:39.989Z,86.94
2022-08-07T07:42:01.848Z,86.85
2022-08-07T07:42:39.979Z,86.04
2022-08-07T07:43:47.923Z,86.24
2022-08-07T07:44:40.041Z,85.03
2022-08-07T07:46:36.913Z,84.94
2022-08-07T07:46:54.187Z,85.53
2022-08-07T07:47:52.129Z,85.74
2022-08-07T07:48:39.902Z,86.54
2022-08-07T07:50:33.285Z,85.74
2022-08-07T07:50:40.769Z,87.04
2022-08-07T07:51:57.950Z,86.40
2022-08-07T07:52:39.950Z,87.51
2022-08-07T07:53:48.132Z,87.51
2022-08-07T07:54:39.999Z,85.50
2022-08-07T07:55:45.741Z,85.39
2022-08-07T07:56:39.830Z,84.49
2022-08-07T07:57:51.592Z,85.19
2022-08-07T07:58:40.955Z,87.01
2022-08-07T07:59:52.252Z,84.99
2022-08-07T08:00:39.768Z,84.99
2022-08-07T08:02:03.811Z,84.89
2022-08-07T08:03:05.170Z,84.09
2022-08-07T08:04:11.086Z,84.99
2022-08-07T08:04:39.804Z,85.90
2022-08-07T08:05:53.670Z,85.44
2022-08-07T08:06:39.713Z,84.23
2022-08-07T08:07:42.079Z,85.64
2022-08-07T08:08:39.424Z,84.23
2022-08-07T08:09:51.815Z,85.64
2022-08-07T08:10:39.732Z,86.70
2022-08-07T08:11:59.921Z,84.80
2022-08-07T08:12:58.951Z,84.80
2022-08-07T08:13:54.311Z,85.46
2022-08-07T08:14:39.619Z,83.75
2022-08-07T08:15:58.006Z,84.55
2022-08-07T08:16:39.623Z,83.95
2022-08-07T08:17:57.872Z,84.55
2022-08-07T08:18:39.578Z,83.55
2022-08-07T08:20:19.099Z,83.15
2022-08-07T08:20:39.564Z,84.05
2022-08-07T08:21:55.660Z,83.35
2022-08-07T08:22:54.172Z,83.51
2022-08-07T08:23:39.533Z,83.71
2022-08-07T08:24:44.922Z,84.01
2022-08-07T08:25:42.225Z,83.21
2022-08-07T08:26:39.494Z,83.21
2022-08-07T08:27:38.496Z,82.60
2022-08-07T08:28:43.425Z,83.37
2022-08-07T08:29:54.287Z,82.20
2022-08-07T08:30:42.875Z,82.37
2022-08-07T08:31:58.802Z,83.37
2022-08-07T08:32:41.256Z,82.37
2022-08-07T08:33:38.420Z,81.76
2022-08-07T08:34:38.410Z,83.17
2022-08-07T08:35:39.385Z,83.47
2022-08-07T08:36:39.390Z,83.47
2022-08-07T08:37:59.534Z,82.93
2022-08-07T08:38:40.683Z,82.03
2022-08-07T08:39:39.114Z,82.53
2022-08-07T08:40:39.342Z,81.32
2022-08-07T08:41:58.253Z,81.73
2022-08-07T08:42:40.255Z,81.02
2022-08-07T08:43:42.311Z,80.12
2022-08-07T08:44:44.398Z,81.02
2022-08-07T08:45:41.550Z,80.62
2022-08-07T08:46:39.275Z,82.23
2022-08-07T08:47:51.814Z,81.32
2022-08-07T08:48:39.265Z,81.82
2022-08-07T08:49:46.295Z,81.12
2022-08-07T08:50:40.188Z,80.92
2022-08-07T08:52:13.139Z,81.52
2022-08-07T08:52:40.827Z,81.62
2022-08-07T08:53:39.215Z,81.23
2022-08-07T08:54:38.197Z,81.82
2022-08-07T08:55:53.386Z,81.52
2022-08-07T08:56:39.191Z,82.53
2022-08-07T08:57:39.172Z,81.62
2022-08-07T08:58:38.160Z,81.12
2022-08-07T08:59:42.000Z,81.73
2022-08-07T09:00:42.603Z,81.73
2022-08-07T09:01:40.012Z,82.23
2022-08-07T09:02:39.231Z,83.43
2022-08-07T09:03:49.414Z,81.82
2022-08-07T09:04:39.151Z,82.53
2022-08-07T09:05:38.145Z,82.23
2022-08-07T09:06:38.072Z,81.82
2022-08-07T09:07:46.380Z,82.63
2022-08-07T09:08:39.280Z,82.43
2022-08-07T09:09:38.074Z,81.82
2022-08-07T09:10:38.052Z,82.73
2022-08-07T09:11:50.836Z,82.63
2022-08-07T09:12:39.022Z,81.52
2022-08-07T09:13:38.327Z,81.42
2022-08-07T09:14:38.054Z,81.52
2022-08-07T09:16:25.455Z,81.42
2022-08-07T09:16:39.008Z,81.73
2022-08-07T09:17:59.754Z,81.62
2022-08-07T09:18:38.947Z,81.32
2022-08-07T09:19:51.919Z,81.93
2022-08-07T09:20:38.958Z,82.23
2022-08-07T09:22:09.682Z,81.52
2022-08-07T09:24:33.366Z,82.03
2022-08-07T09:24:33.796Z,81.82
2022-08-07T09:24:58.685Z,82.53
2022-08-07T09:25:38.888Z,82.93
2022-08-07T09:26:37.857Z,82.43
2022-08-07T09:27:54.560Z,83.63
2022-08-07T09:30:00.678Z,81.73
2022-08-07T09:30:06.492Z,81.73
2022-08-07T09:30:38.819Z,81.73
2022-08-07T09:31:38.505Z,82.43
2022-08-07T09:32:37.793Z,80.82
2022-08-07T09:33:53.257Z,81.02
2022-08-07T09:34:38.780Z,81.73
2022-08-07T09:36:03.158Z,82.23
2022-08-07T09:36:39.398Z,82.12
2022-08-07T09:37:48.199Z,81.62
2022-08-07T09:38:38.963Z,82.03
2022-08-07T09:39:55.207Z,81.48
2022-08-07T09:40:38.714Z,82.29
2022-08-07T09:41:58.336Z,82.09
2022-08-07T09:42:38.695Z,80.68
2022-08-07T09:44:03.677Z,81.79
2022-08-07T09:44:58.427Z,82.79
2022-08-07T09:47:26.045Z,81.88
2022-08-07T09:47:42.499Z,81.38
2022-08-07T09:47:58.181Z,81.99
2022-08-07T09:49:59.839Z,81.09
2022-08-07T09:50:01.836Z,80.88
2022-08-07T09:50:39.978Z,81.88
2022-08-07T09:52:16.614Z,81.38
2022-08-07T09:52:38.584Z,80.18
2022-08-07T09:53:40.534Z,80.79
2022-08-07T09:54:37.583Z,81.59
2022-08-07T09:56:04.612Z,82.29
2022-08-07T09:56:41.832Z,81.88
2022-08-07T09:57:37.548Z,81.68
2022-08-07T09:58:38.531Z,81.79
2022-08-07T09:59:46.330Z,79.98
2022-08-07T10:00:38.609Z,80.88
2022-08-07T10:01:51.326Z,81.18
2022-08-07T10:02:38.482Z,80.68
2022-08-07T10:04:04.975Z,80.79
2022-08-07T10:04:39.290Z,81.12
2022-08-07T10:05:59.532Z,82.23
2022-08-07T10:06:38.474Z,83.03
2022-08-07T10:07:39.760Z,83.43
2022-08-07T10:08:38.423Z,82.63
2022-08-07T10:09:59.377Z,82.43
2022-08-07T10:11:07.583Z,82.57
2022-08-07T10:12:03.154Z,82.17
2022-08-07T10:12:39.806Z,82.37
2022-08-07T10:14:00.436Z,82.87
2022-08-07T10:14:38.360Z,82.46
2022-08-07T10:15:37.689Z,82.87
2022-08-07T10:16:38.337Z,83.77
2022-08-07T10:18:01.850Z,82.76
2022-08-07T10:18:38.321Z,84.27
2022-08-07T10:19:37.763Z,82.57
2022-08-07T10:20:37.294Z,82.37
2022-08-07T10:22:12.556Z,81.96
2022-08-07T10:22:38.279Z,81.96
2022-08-07T10:24:06.409Z,81.96
2022-08-07T10:24:39.860Z,81.87
2022-08-07T10:25:43.052Z,80.56
2022-08-07T10:26:38.232Z,82.06
2022-08-07T10:27:47.009Z,80.36
2022-08-07T10:28:38.303Z,81.26
2022-08-07T10:29:43.203Z,82.87
2022-08-07T10:30:38.195Z,82.26
2022-08-07T10:31:38.976Z,81.73
2022-08-07T10:32:53.261Z,81.93
2022-08-07T10:34:06.332Z,81.82
2022-08-07T10:34:38.171Z,81.52
2022-08-07T10:35:56.106Z,80.82
2022-08-07T10:36:38.126Z,81.12
2022-08-07T10:38:00.929Z,80.66
2022-08-07T10:38:42.137Z,81.56
2022-08-07T10:39:41.291Z,81.96
2022-08-07T10:40:37.076Z,82.06
2022-08-07T10:41:54.752Z,81.50
2022-08-07T10:42:38.058Z,81.70
2022-08-07T10:43:37.049Z,82.40
2022-08-07T10:44:38.466Z,81.90
2022-08-07T10:45:44.690Z,82.51
2022-08-07T10:46:38.015Z,82.54
2022-08-07T10:47:52.534Z,82.54
2022-08-07T10:48:38.021Z,82.04
2022-08-07T10:49:49.197Z,83.04
2022-08-07T10:50:37.998Z,83.04
2022-08-07T10:51:57.512Z,84.05
2022-08-07T10:52:37.957Z,82.75
2022-08-07T10:53:41.859Z,83.04
2022-08-07T10:54:37.932Z,83.45
2022-08-07T10:55:38.737Z,83.65
2022-08-07T10:56:36.921Z,83.25
2022-08-07T10:57:37.196Z,82.64
2022-08-07T10:58:40.252Z,82.64
2022-08-07T10:59:37.264Z,84.05
2022-08-07T11:00:43.227Z,82.64
2022-08-07T11:01:52.027Z,83.15
2022-08-07T11:02:37.875Z,82.34
2022-08-07T11:03:37.698Z,83.35
2022-08-07T11:04:38.021Z,84.65
2022-08-07T11:05:50.603Z,82.75
2022-08-07T11:06:37.796Z,82.84
2022-08-07T11:07:58.507Z,83.55
2022-08-07T11:08:38.968Z,83.95
2022-08-07T11:10:08.019Z,83.55
2022-08-07T11:10:37.759Z,81.94
2022-08-07T11:11:37.677Z,82.40
2022-08-07T11:12:36.738Z,83.31
2022-08-07T11:14:44.241Z,82.51
2022-08-07T11:14:46.027Z,82.31
2022-08-07T11:15:37.709Z,82.60
2022-08-07T11:16:36.700Z,84.01
2022-08-07T11:17:43.263Z,82.00
2022-08-07T11:18:37.680Z,82.90
2022-08-07T11:19:36.691Z,81.80
2022-08-07T11:20:36.655Z,82.70
2022-08-07T11:21:42.781Z,82.45
2022-08-07T11:22:45.887Z,82.54
2022-08-07T11:23:38.595Z,83.31
2022-08-07T11:24:36.612Z,83.04
2022-08-07T11:25:42.135Z,82.34
2022-08-07T11:26:38.421Z,82.70
2022-08-07T11:28:01.317Z,82.40
2022-08-07T11:28:37.573Z,82.75
2022-08-07T11:29:43.539Z,81.84
2022-08-07T11:30:41.764Z,83.25
2022-08-07T11:31:37.139Z,82.95
2022-08-07T11:32:36.526Z,83.11
2022-08-07T11:33:53.876Z,81.60
2022-08-07T11:34:37.497Z,82.90
2022-08-07T11:35:37.499Z,82.90
2022-08-07T11:36:37.507Z,82.00
2022-08-07T11:37:57.323Z,82.31
2022-08-07T11:38:37.467Z,81.40
2022-08-07T11:39:59.232Z,82.51
2022-08-07T11:40:37.451Z,81.40
2022-08-07T11:42:01.472Z,82.70
2022-08-07T11:42:37.431Z,82.20
2022-08-07T11:43:54.640Z,81.90
2022-08-07T11:44:37.410Z,82.51
2022-08-07T11:45:36.930Z,81.90
2022-08-07T11:46:36.778Z,80.40
2022-08-07T11:47:39.120Z,81.16
2022-08-07T11:48:37.578Z,82.57
2022-08-07T11:50:11.398Z,83.27
2022-08-07T11:50:44.590Z,80.56
2022-08-07T11:51:44.655Z,80.46
2022-08-07T11:52:37.742Z,80.16
2022-08-07T11:53:36.312Z,81.32
2022-08-07T11:54:36.303Z,79.72
2022-08-07T11:56:25.937Z,79.22
2022-08-07T11:56:37.273Z,79.62
2022-08-07T11:57:59.728Z,79.82
2022-08-07T11:58:37.264Z,78.81
2022-08-07T12:00:10.247Z,79.78
2022-08-07T12:00:37.242Z,78.38
2022-08-07T12:01:59.741Z,77.87
2022-08-07T12:02:37.250Z,78.58
2022-08-07T12:03:45.083Z,79.98
2022-08-07T12:04:37.196Z,80.85
2022-08-07T12:05:47.610Z,77.84
2022-08-07T12:06:40.251Z,78.44
2022-08-07T12:07:39.023Z,77.94
2022-08-07T12:08:36.168Z,79.94
2022-08-07T12:09:36.137Z,79.41
2022-08-07T12:10:36.142Z,79.21
2022-08-07T12:11:43.218Z,79.21
2022-08-07T12:12:37.113Z,78.17
2022-08-07T12:13:37.859Z,76.87
2022-08-07T12:14:36.098Z,77.67
2022-08-07T12:16:05.119Z,77.97
2022-08-07T12:16:37.062Z,77.56
2022-08-07T12:17:36.341Z,75.67
2022-08-07T12:18:36.045Z,76.37
2022-08-07T12:19:56.779Z,77.06
2022-08-07T12:20:37.025Z,77.06
2022-08-07T12:22:35.986Z,75.76
2022-08-07T12:22:47.299Z,76.37
2022-08-07T12:24:06.329Z,75.96
2022-08-07T12:24:40.106Z,77.26
2022-08-07T12:26:22.201Z,79.13
2022-08-07T12:26:40.665Z,77.13
2022-08-07T12:28:08.640Z,77.23
2022-08-07T12:28:36.948Z,75.52
2022-08-07T12:29:37.888Z,76.93
2022-08-07T12:30:35.919Z,76.49
2022-08-07T12:31:52.329Z,78.99
2022-08-07T12:32:36.908Z,76.49
2022-08-07T12:34:01.031Z,75.49
2022-08-07T12:34:36.879Z,76.39
2022-08-07T12:35:36.243Z,77.29
2022-08-07T12:36:35.860Z,75.19
2022-08-07T12:38:09.227Z,75.69
2022-08-07T12:38:43.359Z,74.26
2022-08-07T12:39:43.074Z,74.26
2022-08-07T12:40:47.629Z,74.62
2022-08-07T12:41:49.302Z,74.32
2022-08-07T12:42:36.892Z,73.92
2022-08-07T12:44:02.136Z,73.22
2022-08-07T12:44:36.770Z,72.32
2022-08-07T12:45:35.753Z,71.72
2022-08-07T12:46:35.754Z,75.02
2022-08-07T12:47:37.462Z,73.32
2022-08-07T12:48:41.573Z,72.26
2022-08-07T12:49:44.791Z,73.06
2022-08-07T12:50:39.192Z,73.36
2022-08-07T12:51:51.449Z,73.56
2022-08-07T12:52:36.685Z,74.26